Time;durP1;ratioP1;P1;durP2;ratioP2;P2;SDS_P1;SDS_P2;PMS_P1;PMS_P2;Temp;Humidity;BMP_temperature;BMP_pressure;BME280_temperature;BME280_humidity;BME280_pressure;Samples;Min_cycle;Max_cycle;Signal;HPM_P1;HPM_P2
2022/05/07 00:00:16;;;;;;;3.08;1.73;;;15.70;67.20;;;;;;5118935;27;20024;-60
2022/05/07 00:02:42;;;;;;;3.60;2.20;;;15.70;67.60;;;;;;5094288;28;20027;-61
2022/05/07 00:05:08;;;;;;;2.08;1.85;;;15.70;67.90;;;;;;5115651;27;20428;-61
2022/05/07 00:07:33;;;;;;;2.78;2.05;;;15.70;68.00;;;;;;5110370;28;20107;-64
2022/05/07 00:09:59;;;;;;;2.28;2.10;;;15.70;68.00;;;;;;5104350;28;20534;-64
2022/05/07 00:12:25;;;;;;;6.63;2.33;;;15.60;68.10;;;;;;5108184;27;20066;-60
2022/05/07 00:14:50;;;;;;;2.33;2.13;;;15.60;68.20;;;;;;5094405;28;20419;-60
2022/05/07 00:20:01;;;;;;;4.32;2.42;;;15.60;68.60;;;;;;5103288;28;20421;-61
2022/05/07 00:22:27;;;;;;;2.20;2.00;;;15.50;68.60;;;;;;5100271;27;20111;-61
2022/05/07 00:24:52;;;;;;;4.78;2.35;;;15.50;68.60;;;;;;5079260;28;20119;-61
2022/05/07 00:27:18;;;;;;;2.50;2.30;;;15.50;68.70;;;;;;5094925;28;20055;-60
2022/05/07 00:29:44;;;;;;;3.38;2.50;;;15.50;68.80;;;;;;5100666;28;20031;-61
2022/05/07 00:32:09;;;;;;;3.03;2.10;;;15.50;68.80;;;;;;5110788;27;20097;-60
2022/05/07 00:34:35;;;;;;;2.83;2.60;;;15.50;68.90;;;;;;5082105;28;20073;-60
2022/05/07 00:37:01;;;;;;;2.75;2.05;;;15.40;68.90;;;;;;5109986;27;20037;-60
2022/05/07 00:39:27;;;;;;;3.28;2.30;;;15.40;68.90;;;;;;5089026;28;20028;-61
2022/05/07 00:41:53;;;;;;;2.63;1.67;;;15.40;69.00;;;;;;5100348;27;20039;-61
2022/05/07 00:44:21;;;;;;;4.25;2.35;;;15.40;69.10;;;;;;5112007;27;20050;-61
2022/05/07 00:46:47;;;;;;;3.65;2.42;;;15.40;69.10;;;;;;5119225;27;20127;-61
2022/05/07 00:49:13;;;;;;;3.22;2.30;;;15.40;69.30;;;;;;5088611;28;20070;-61
2022/05/07 00:51:40;;;;;;;3.70;2.85;;;15.40;69.40;;;;;;5089793;28;20048;-60
2022/05/07 00:54:07;;;;;;;4.88;3.47;;;15.40;69.60;;;;;;5103867;27;20042;-60
2022/05/07 00:56:34;;;;;;;4.43;2.92;;;15.40;69.80;;;;;;5102725;28;20397;-60
2022/05/07 00:59:00;;;;;;;3.25;2.45;;;15.40;70.00;;;;;;5102383;28;20399;-61
2022/05/07 01:01:27;;;;;;;3.17;2.38;;;15.40;70.60;;;;;;5091372;28;20033;-61
2022/05/07 01:03:53;;;;;;;3.13;2.40;;;15.30;70.00;;;;;;5106563;28;20067;-60
2022/05/07 01:06:20;;;;;;;3.55;2.80;;;15.30;70.00;;;;;;5109305;28;20031;-60
2022/05/07 01:08:47;;;;;;;5.00;3.70;;;15.30;70.20;;;;;;5099412;28;20027;-60
2022/05/07 01:11:17;;;;;;;3.75;2.60;;;15.30;70.20;;;;;;5108779;28;20061;-61
2022/05/07 01:13:47;;;;;;;4.30;2.80;;;15.30;70.30;;;;;;5120420;28;20129;-61
2022/05/07 01:16:13;;;;;;;4.00;2.47;;;15.20;70.30;;;;;;5129715;28;20087;-60
2022/05/07 01:18:40;;;;;;;3.03;2.38;;;15.20;70.30;;;;;;5105382;28;20032;-60
2022/05/07 01:21:17;;;;;;;4.70;3.05;;;15.20;70.40;;;;;;5088714;28;20028;-60
2022/05/07 01:23:44;;;;;;;3.92;3.10;;;15.20;70.40;;;;;;5118251;28;20024;-60
2022/05/07 01:26:11;;;;;;;3.80;3.20;;;15.20;70.40;;;;;;5108815;28;20119;-60
2022/05/07 01:28:38;;;;;;;4.00;3.03;;;15.20;70.60;;;;;;5110581;28;20027;-60
2022/05/07 01:31:04;;;;;;;3.45;3.05;;;15.20;70.70;;;;;;5126698;28;20095;-60
2022/05/07 01:33:34;;;;;;;3.13;2.80;;;15.10;70.70;;;;;;5129730;28;20023;-60
2022/05/07 01:36:07;;;;;;;5.53;3.20;;;15.10;70.70;;;;;;5106039;28;20024;-61
2022/05/07 01:38:32;;;;;;;4.05;3.00;;;15.10;70.80;;;;;;5127042;28;20027;-61
2022/05/07 01:40:59;;;;;;;4.63;3.38;;;15.10;70.80;;;;;;5126758;28;20058;-60
2022/05/07 01:43:27;;;;;;;3.97;3.47;;;15.10;70.90;;;;;;5129515;28;20023;-60
2022/05/07 01:45:54;;;;;;;5.03;3.38;;;15.00;71.00;;;;;;5112656;28;20410;-60
2022/05/07 01:48:20;;;;;;;4.22;3.83;;;15.00;71.10;;;;;;5108947;28;20089;-61
2022/05/07 01:50:46;;;;;;;5.70;3.58;;;15.00;71.30;;;;;;5089661;28;20087;-61
2022/05/07 01:53:14;;;;;;;8.32;2.83;;;14.90;71.30;;;;;;5094502;28;20025;-61
2022/05/07 01:55:40;;;;;;;3.67;3.22;;;14.90;71.40;;;;;;5118719;28;20478;-60
2022/05/07 01:58:06;;;;;;;4.50;3.13;;;14.90;71.50;;;;;;5129359;28;20023;-64
2022/05/07 02:00:34;;;;;;;3.97;3.38;;;14.90;71.60;;;;;;5109171;28;20023;-64
2022/05/07 02:03:00;;;;;;;3.65;2.90;;;14.80;71.60;;;;;;5130264;28;20113;-64
2022/05/07 02:05:28;;;;;;;3.97;3.58;;;14.80;71.50;;;;;;5128559;28;20100;-64
2022/05/07 02:07:55;;;;;;;5.05;3.47;;;14.80;71.60;;;;;;5110786;28;20043;-64
2022/05/07 02:10:21;;;;;;;4.40;3.38;;;14.80;71.60;;;;;;5120228;28;20370;-64
2022/05/07 02:12:48;;;;;;;4.75;3.67;;;14.80;71.70;;;;;;5113506;28;20097;-64
2022/05/07 02:15:14;;;;;;;4.95;3.83;;;14.80;71.80;;;;;;5120881;27;20096;-64
2022/05/07 02:17:39;;;;;;;4.78;4.20;;;14.70;71.80;;;;;;5118760;27;20048;-64
2022/05/07 02:20:06;;;;;;;4.50;4.10;;;14.70;71.90;;;;;;5107044;28;20044;-64
2022/05/07 02:22:32;;;;;;;5.43;4.13;;;14.70;72.00;;;;;;5113202;27;20024;-64
2022/05/07 02:25:01;;;;;;;6.07;4.85;;;14.70;72.10;;;;;;5121402;27;20084;-64
2022/05/07 02:27:27;;;;;;;5.40;4.22;;;14.70;72.80;;;;;;5093987;28;20073;-64
2022/05/07 02:29:53;;;;;;;6.63;4.32;;;14.60;72.20;;;;;;5124275;27;20571;-61
2022/05/07 02:32:19;;;;;;;6.15;4.22;;;14.60;72.30;;;;;;5129028;27;20095;-60
2022/05/07 02:34:45;;;;;;;5.53;4.10;;;14.60;72.30;;;;;;5130019;27;20462;-60
2022/05/07 02:37:11;;;;;;;6.05;3.78;;;14.60;72.40;;;;;;5132764;27;20027;-61
2022/05/07 02:39:37;;;;;;;4.80;4.00;;;14.60;72.50;;;;;;5130448;27;20027;-60
2022/05/07 02:44:49;;;;;;;8.93;5.43;;;14.50;72.50;;;;;;5129298;27;20079;-61
2022/05/07 02:47:15;;;;;;;5.70;4.43;;;14.50;72.60;;;;;;5132812;27;20346;-60
2022/05/07 02:49:41;;;;;;;7.18;5.13;;;14.50;72.60;;;;;;5129709;27;20512;-61
2022/05/07 02:52:07;;;;;;;4.57;4.18;;;14.50;72.80;;;;;;5132841;27;20054;-61
2022/05/07 02:54:33;;;;;;;10.68;4.72;;;14.50;73.40;;;;;;5121098;27;20024;-64
2022/05/07 02:56:58;;;;;;;6.53;4.40;;;14.50;73.00;;;;;;5113124;28;20351;-64
2022/05/07 02:59:24;;;;;;;5.57;4.35;;;14.50;73.10;;;;;;5122688;27;20447;-61
2022/05/07 03:01:50;;;;;;;6.75;5.28;;;14.50;73.10;;;;;;5091398;28;20126;-60
2022/05/07 03:04:15;;;;;;;6.85;4.65;;;14.50;73.30;;;;;;5121658;27;20092;-61
2022/05/07 03:06:41;;;;;;;8.18;5.65;;;14.50;73.40;;;;;;5132606;27;20031;-60
2022/05/07 03:09:07;;;;;;;5.32;4.70;;;14.50;73.50;;;;;;5128035;27;20095;-61
2022/05/07 03:11:34;;;;;;;5.05;4.32;;;14.40;73.60;;;;;;5131967;27;20016;-60
2022/05/07 03:14:03;;;;;;;6.20;4.53;;;14.40;73.60;;;;;;5110701;27;20030;-61
2022/05/07 03:16:30;;;;;;;8.90;4.80;;;14.40;73.70;;;;;;5096652;28;20529;-60
2022/05/07 03:18:56;;;;;;;6.30;4.25;;;14.40;73.80;;;;;;5120755;27;20466;-60
2022/05/07 03:21:21;;;;;;;6.93;5.85;;;14.40;73.90;;;;;;5131957;27;20238;-60
2022/05/07 03:23:47;;;;;;;7.15;5.63;;;14.40;74.00;;;;;;5128656;27;20058;-61
2022/05/07 03:26:13;;;;;;;7.60;5.57;;;14.40;74.00;;;;;;5131819;27;20027;-60
2022/05/07 03:28:39;;;;;;;8.07;6.38;;;14.40;74.10;;;;;;5129820;27;20031;-61
2022/05/07 03:31:06;;;;;;;8.70;5.85;;;14.30;74.00;;;;;;5129728;27;20043;-61
2022/05/07 03:33:32;;;;;;;7.82;6.00;;;14.30;74.00;;;;;;5110213;27;20122;-61
2022/05/07 03:35:58;;;;;;;6.13;5.03;;;14.30;74.20;;;;;;5109617;28;20355;-61
2022/05/07 03:38:24;;;;;;;8.27;5.22;;;14.30;74.20;;;;;;5111757;27;20043;-61
2022/05/07 03:40:50;;;;;;;7.65;5.22;;;14.30;74.20;;;;;;5131320;27;20385;-60
2022/05/07 03:43:16;;;;;;;5.82;5.15;;;14.30;74.30;;;;;;5109906;27;20026;-61
2022/05/07 03:45:42;;;;;;;11.13;6.03;;;14.30;74.30;;;;;;5131241;27;20035;-61
2022/05/07 03:48:09;;;;;;;7.97;5.85;;;14.20;74.40;;;;;;5111504;27;20493;-60
2022/05/07 03:50:35;;;;;;;6.50;5.35;;;14.20;74.50;;;;;;5110266;27;20052;-60
2022/05/07 03:55:45;;;;;;;7.20;5.47;;;14.20;74.50;;;;;;5127033;27;20069;-61
2022/05/07 03:58:15;;;;;;;7.78;5.20;;;14.20;74.60;;;;;;5125448;27;20046;-61
2022/05/07 04:00:41;;;;;;;7.30;5.97;;;14.20;74.60;;;;;;5129081;27;20111;-64
2022/05/07 04:03:07;;;;;;;8.23;5.78;;;14.20;74.70;;;;;;5129775;27;20042;-61
2022/05/07 04:05:32;;;;;;;9.35;6.50;;;14.20;74.70;;;;;;5122578;27;20040;-61
2022/05/07 04:07:58;;;;;;;6.63;5.10;;;14.10;74.90;;;;;;5110309;28;20028;-64
2022/05/07 04:10:24;;;;;;;8.15;6.03;;;14.10;75.50;;;;;;5109498;27;20023;-60
2022/05/07 04:12:51;;;;;;;9.93;6.93;;;14.10;75.00;;;;;;5109956;28;20028;-60
2022/05/07 04:15:21;;;;;;;6.97;5.28;;;14.10;75.10;;;;;;5126438;27;20043;-64
2022/05/07 04:17:47;;;;;;;11.27;6.68;;;14.10;75.20;;;;;;5130884;27;20393;-64
2022/05/07 04:20:13;;;;;;;8.73;5.97;;;14.10;75.30;;;;;;5128801;27;20042;-64
2022/05/07 04:22:39;;;;;;;6.60;5.35;;;14.20;75.40;;;;;;5129659;27;20027;-64
2022/05/07 04:25:06;;;;;;;8.50;5.97;;;14.20;75.50;;;;;;5114561;27;20104;-64
2022/05/07 04:27:32;;;;;;;8.77;6.43;;;14.10;75.60;;;;;;5089742;28;20439;-64
2022/05/07 04:29:58;;;;;;;8.02;5.80;;;14.20;75.80;;;;;;5097904;28;20027;-64
2022/05/07 04:32:25;;;;;;;8.90;5.75;;;14.20;75.90;;;;;;5109974;28;20024;-64
2022/05/07 04:34:50;;;;;;;8.90;7.43;;;14.20;76.10;;;;;;5117779;27;20034;-64
2022/05/07 04:37:16;;;;;;;7.28;6.50;;;14.20;76.30;;;;;;5127321;27;20115;-64
2022/05/07 04:39:42;;;;;;;13.43;7.25;;;14.20;76.50;;;;;;5130306;27;20027;-64
2022/05/07 04:42:08;;;;;;;8.95;6.72;;;14.20;76.60;;;;;;5122748;27;20035;-64
2022/05/07 04:44:33;;;;;;;10.88;7.65;;;14.20;76.70;;;;;;5129873;27;20027;-64
2022/05/07 04:46:59;;;;;;;9.27;6.72;;;14.20;76.80;;;;;;5129233;27;20015;-64
2022/05/07 04:49:25;;;;;;;8.60;6.50;;;14.20;76.90;;;;;;5129213;27;20039;-64
2022/05/07 04:51:51;;;;;;;13.70;6.45;;;14.30;77.00;;;;;;5128939;27;20133;-61
2022/05/07 04:54:20;;;;;;;8.82;6.10;;;14.30;77.10;;;;;;5128051;27;20051;-60
2022/05/07 04:56:49;;;;;;;9.80;7.20;;;14.30;77.20;;;;;;5079030;28;20478;-61
2022/05/07 04:59:16;;;;;;;10.73;7.78;;;14.30;77.30;;;;;;5107506;27;20056;-61
2022/05/07 05:01:42;;;;;;;10.05;7.32;;;14.30;77.50;;;;;;5088776;28;20040;-61
2022/05/07 05:04:08;;;;;;;9.00;6.93;;;14.30;77.50;;;;;;5102295;28;20478;-61
2022/05/07 05:06:34;;;;;;;15.30;6.57;;;14.40;77.70;;;;;;5126736;28;20375;-60
2022/05/07 05:09:00;;;;;;;11.50;6.65;;;14.40;77.70;;;;;;5122477;28;20041;-61
2022/05/07 05:11:25;;;;;;;9.93;6.95;;;14.40;77.70;;;;;;5129653;28;20461;-60
2022/05/07 05:13:51;;;;;;;9.13;7.03;;;14.40;77.90;;;;;;5122875;28;20035;-61
2022/05/07 05:16:17;;;;;;;11.32;7.65;;;14.50;78.10;;;;;;5094759;28;20040;-61
2022/05/07 05:18:43;;;;;;;9.02;6.88;;;14.50;78.20;;;;;;5108473;28;20302;-60
2022/05/07 05:21:09;;;;;;;10.82;7.90;;;14.50;78.20;;;;;;5128577;28;20031;-61
2022/05/07 05:23:34;;;;;;;8.95;7.40;;;14.60;78.20;;;;;;5127075;28;20038;-61
2022/05/07 05:26:00;;;;;;;7.95;6.35;;;14.60;78.20;;;;;;5127040;28;20487;-61
2022/05/07 05:28:26;;;;;;;12.13;7.57;;;14.60;78.20;;;;;;5110517;28;20072;-64
2022/05/07 05:30:52;;;;;;;8.82;6.30;;;14.70;78.40;;;;;;5100125;28;20149;-64
2022/05/07 05:33:22;;;;;;;7.07;6.05;;;14.70;78.30;;;;;;5111314;28;20081;-64
2022/05/07 05:35:48;;;;;;;7.65;6.25;;;14.70;78.40;;;;;;5115547;28;20016;-64
2022/05/07 05:38:15;;;;;;;8.20;6.47;;;14.70;78.50;;;;;;5100992;28;20131;-64
2022/05/07 05:40:41;;;;;;;6.93;5.75;;;14.80;78.50;;;;;;5108710;28;20036;-64
2022/05/07 05:43:08;;;;;;;8.48;5.68;;;14.80;78.50;;;;;;5089297;28;20055;-64
2022/05/07 05:45:34;;;;;;;8.52;7.03;;;14.80;78.50;;;;;;5093552;28;20043;-64
2022/05/07 05:48:01;;;;;;;8.02;5.35;;;14.90;78.60;;;;;;5110739;27;20116;-61
2022/05/07 05:50:30;;;;;;;9.50;7.53;;;14.90;78.50;;;;;;5111596;27;20048;-61
2022/05/07 05:52:56;;;;;;;9.57;6.25;;;15.00;78.50;;;;;;5107705;28;20027;-61
2022/05/07 05:55:22;;;;;;;8.90;6.88;;;15.00;78.50;;;;;;5110357;28;20024;-61
2022/05/07 05:57:48;;;;;;;11.45;6.38;;;15.10;78.60;;;;;;5091812;28;20031;-64
2022/05/07 06:00:15;;;;;;;10.20;6.97;;;15.10;78.50;;;;;;5074138;28;20044;-64
2022/05/07 06:02:44;;;;;;;6.85;5.65;;;15.20;78.60;;;;;;5095439;27;20129;-64
2022/05/07 06:05:10;;;;;;;6.82;5.35;;;15.30;78.60;;;;;;5112811;28;20028;-64
2022/05/07 06:07:36;;;;;;;6.95;5.32;;;15.30;78.50;;;;;;5085932;28;20035;-64
2022/05/07 06:10:02;;;;;;;8.00;5.05;;;15.40;78.30;;;;;;5112094;28;20507;-64
2022/05/07 06:12:27;;;;;;;6.13;4.85;;;15.40;78.20;;;;;;5106605;28;20063;-64
2022/05/07 06:14:54;;;;;;;8.13;4.72;;;15.40;77.70;;;;;;5113558;27;20043;-64
2022/05/07 06:17:20;;;;;;;6.18;4.72;;;15.50;77.40;;;;;;5101806;28;20401;-64
2022/05/07 06:19:45;;;;;;;5.13;3.95;;;15.50;77.20;;;;;;5110898;27;20114;-64
2022/05/07 06:22:11;;;;;;;6.38;4.05;;;15.50;77.00;;;;;;5112936;28;20067;-64
2022/05/07 06:27:33;;;;;;;29.83;4.25;;;15.60;76.40;;;;;;5092580;28;20047;-61
2022/05/07 06:30:00;;;;;;;8.05;4.57;;;15.60;76.10;;;;;;5091683;28;20493;-61
2022/05/07 06:32:36;;;;;;;5.22;3.90;;;15.70;75.80;;;;;;5097893;28;20039;-61
2022/05/07 06:35:06;;;;;;;4.80;3.65;;;15.70;75.30;;;;;;5112375;28;20031;-61
2022/05/07 06:37:33;;;;;;;3.47;2.70;;;15.70;75.20;;;;;;5112243;28;20023;-61
2022/05/07 06:40:00;;;;;;;4.78;3.35;;;15.80;75.10;;;;;;5105832;27;20062;-61
2022/05/07 06:42:26;;;;;;;4.10;2.97;;;15.80;74.70;;;;;;5109223;28;20078;-62
2022/05/07 06:44:51;;;;;;;10.05;3.92;;;15.90;73.80;;;;;;5116379;27;20524;-61
2022/05/07 06:47:17;;;;;;;6.18;3.67;;;15.90;72.90;;;;;;5133018;27;20500;-61
2022/05/07 06:49:43;;;;;;;4.07;3.63;;;16.00;72.70;;;;;;5119241;27;20473;-61
2022/05/07 06:52:09;;;;;;;4.15;3.45;;;16.00;72.50;;;;;;5132048;27;20027;-62
2022/05/07 06:54:35;;;;;;;5.53;2.88;;;16.10;71.70;;;;;;5130702;27;20477;-61
2022/05/07 06:57:03;;;;;;;4.68;2.80;;;16.10;71.50;;;;;;5111649;27;20038;-61
2022/05/07 06:59:32;;;;;;;3.72;3.03;;;16.10;71.10;;;;;;5118764;27;20031;-61
2022/05/07 07:01:59;;;;;;;3.55;2.67;;;16.20;71.20;;;;;;5103869;27;20031;-62
2022/05/07 07:04:25;;;;;;;5.95;3.55;;;16.20;70.40;;;;;;5092006;28;20615;-59
2022/05/07 07:06:51;;;;;;;6.10;3.55;;;16.30;69.20;;;;;;5116474;27;20031;-60
2022/05/07 07:09:18;;;;;;;6.35;3.50;;;16.30;69.30;;;;;;5129528;27;20393;-60
2022/05/07 07:11:44;;;;;;;4.00;3.03;;;16.40;69.60;;;;;;5116031;27;20106;-60
2022/05/07 07:14:10;;;;;;;4.18;3.20;;;16.50;69.60;;;;;;5103168;28;20165;-60
2022/05/07 07:16:36;;;;;;;5.47;3.90;;;16.60;69.60;;;;;;5106508;27;20047;-61
2022/05/07 07:19:02;;;;;;;5.97;3.35;;;16.60;69.40;;;;;;5108159;28;20020;-60
2022/05/07 07:21:28;;;;;;;5.57;3.83;;;16.70;69.40;;;;;;5105066;28;20118;-60
2022/05/07 07:23:54;;;;;;;5.43;4.05;;;16.80;69.40;;;;;;5109828;28;20122;-60
2022/05/07 07:26:20;;;;;;;7.13;3.30;;;16.80;69.20;;;;;;5102831;27;20039;-61
2022/05/07 07:28:47;;;;;;;6.97;4.60;;;16.90;68.90;;;;;;5129471;27;20105;-60
2022/05/07 07:31:13;;;;;;;4.60;3.88;;;16.90;68.80;;;;;;5127107;27;20115;-61
2022/05/07 07:33:39;;;;;;;7.18;3.65;;;17.00;69.00;;;;;;5109749;27;20032;-62
2022/05/07 07:36:09;;;;;;;4.53;3.20;;;17.10;69.00;;;;;;5128633;27;20034;-62
2022/05/07 07:38:37;;;;;;;6.53;3.92;;;17.20;69.10;;;;;;5129506;27;20034;-61
2022/05/07 07:41:03;;;;;;;5.68;3.42;;;17.20;69.10;;;;;;5093144;28;20028;-61
2022/05/07 07:43:31;;;;;;;5.80;4.18;;;17.30;69.00;;;;;;5121488;27;20035;-61
2022/05/07 07:48:42;;;;;;;5.55;3.88;;;17.40;68.80;;;;;;5102325;28;20047;-61
2022/05/07 07:51:08;;;;;;;4.78;3.55;;;17.40;68.60;;;;;;5094311;28;20043;-61
2022/05/07 07:53:35;;;;;;;8.60;4.57;;;17.40;68.50;;;;;;5097970;28;20020;-64
2022/05/07 07:56:00;;;;;;;4.40;3.20;;;17.50;68.30;;;;;;5079789;28;20028;-64
2022/05/07 07:58:26;;;;;;;9.90;4.80;;;17.50;68.30;;;;;;5086710;28;20039;-64
2022/05/07 08:00:53;;;;;;;4.15;3.13;;;17.50;68.10;;;;;;5085236;27;20066;-64
2022/05/07 08:03:20;;;;;;;5.45;3.78;;;17.50;68.30;;;;;;5098507;27;20024;-64
2022/05/07 08:05:49;;;;;;;6.18;3.90;;;17.50;68.30;;;;;;5105767;28;20113;-64
2022/05/07 08:13:46;;;;;;;7.30;4.18;;;17.70;68.10;;;;;;5104521;27;20075;-60
2022/05/07 08:16:13;;;;;;;5.80;4.75;;;17.80;68.00;;;;;;5085218;28;20043;-61
2022/05/07 08:18:41;;;;;;;8.73;4.38;;;17.90;67.50;;;;;;5104344;28;20516;-61
2022/05/07 08:21:08;;;;;;;4.82;3.42;;;17.90;66.90;;;;;;5113388;27;20113;-60
2022/05/07 08:23:34;;;;;;;7.93;4.20;;;18.00;66.90;;;;;;5103358;28;20028;-61
2022/05/07 08:26:02;;;;;;;3.80;3.35;;;18.20;65.80;;;;;;5100901;28;20187;-64
2022/05/07 08:28:29;;;;;;;6.75;4.80;;;18.30;65.70;;;;;;5105884;28;20031;-64
2022/05/07 08:30:55;;;;;;;5.85;3.97;;;18.40;64.80;;;;;;5108677;27;20481;-61
2022/05/07 08:33:21;;;;;;;6.65;3.55;;;18.50;63.50;;;;;;5088334;28;20062;-62
2022/05/07 08:35:47;;;;;;;6.90;4.68;;;18.50;62.40;;;;;;5113338;27;20024;-61
2022/05/07 08:38:13;;;;;;;6.13;3.20;;;18.50;61.20;;;;;;5098926;28;20084;-64
2022/05/07 08:40:42;;;;;;;6.22;3.42;;;18.60;61.90;;;;;;5108091;27;20028;-61
2022/05/07 08:43:08;;;;;;;4.13;3.15;;;18.60;60.90;;;;;;5110944;27;20566;-64
2022/05/07 08:45:35;;;;;;;5.82;3.47;;;18.70;61.30;;;;;;5121683;27;20367;-63
2022/05/07 08:48:01;;;;;;;4.57;2.55;;;18.80;61.00;;;;;;5119892;27;20027;-64
2022/05/07 08:50:27;;;;;;;3.60;2.85;;;18.80;60.70;;;;;;5097587;28;20053;-64
2022/05/07 08:52:53;;;;;;;4.50;2.65;;;18.90;60.70;;;;;;5090133;27;20060;-64
2022/05/07 08:55:20;;;;;;;5.63;3.20;;;19.00;61.00;;;;;;5110712;27;20027;-65
2022/05/07 08:57:48;;;;;;;5.60;2.85;;;19.10;60.00;;;;;;5114897;27;20094;-64
2022/05/07 09:00:16;;;;;;;8.02;3.85;;;19.10;60.60;;;;;;5107184;27;20397;-64
2022/05/07 09:02:54;;;;;;;6.30;2.47;;;19.20;60.50;;;;;;5099633;28;20023;-64
2022/05/07 09:05:21;;;;;;;4.45;2.50;;;19.30;60.50;;;;;;5119141;28;20162;-64
2022/05/07 09:07:58;;;;;;;7.38;3.15;;;19.40;60.60;;;;;;5098783;28;20043;-64
2022/05/07 09:10:29;;;;;;;8.18;3.47;;;19.50;59.70;;;;;;5121346;28;20023;-64
2022/05/07 09:13:00;;;;;;;2.63;2.03;;;19.60;59.80;;;;;;5123492;28;20019;-64
2022/05/07 09:15:25;;;;;;;3.72;2.88;;;19.60;59.80;;;;;;5118373;28;20035;-64
2022/05/07 09:17:51;;;;;;;2.55;2.25;;;19.70;59.80;;;;;;5121361;28;20490;-65
2022/05/07 09:20:26;;;;;;;3.58;2.47;;;19.80;59.90;;;;;;5117825;28;20023;-64
2022/05/07 09:22:55;;;;;;;4.97;2.92;;;19.90;59.90;;;;;;5123147;27;20388;-64
2022/05/07 09:25:26;;;;;;;3.97;2.40;;;20.10;59.20;;;;;;5120890;27;20619;-64
2022/05/07 09:27:54;;;;;;;1.88;1.55;;;20.10;59.50;;;;;;5127707;27;20092;-64
2022/05/07 09:30:27;;;;;;;2.22;1.23;;;20.20;59.10;;;;;;5125710;27;20023;-65
2022/05/07 09:32:55;;;;;;;2.35;1.70;;;20.40;59.20;;;;;;5123170;27;20026;-64
2022/05/07 09:38:14;;;;;;;5.57;2.90;;;20.60;58.20;;;;;;5119184;27;20490;-64
2022/05/07 09:40:44;;;;;;;3.15;2.15;;;20.70;58.00;;;;;;5124299;27;20292;-64
2022/05/07 09:43:12;;;;;;;3.38;2.17;;;20.80;58.20;;;;;;5123335;27;20050;-64
2022/05/07 09:45:39;;;;;;;5.30;2.80;;;20.90;58.10;;;;;;5126346;27;20024;-64
2022/05/07 09:48:06;;;;;;;2.58;1.67;;;21.00;57.50;;;;;;5087485;28;20031;-65
2022/05/07 09:58:42;;;;;;;4.50;2.53;;;21.00;56.00;;;;;;5119637;27;20059;-64
2022/05/07 10:01:26;;;;;;;2.05;1.30;;;20.90;56.60;;;;;;5128446;27;20500;-63
2022/05/07 10:04:17;;;;;;;3.42;2.28;;;21.00;56.60;;;;;;5122297;27;20027;-65
2022/05/07 10:06:54;;;;;;;3.45;2.60;;;21.00;56.10;;;;;;5121055;27;20031;-65
2022/05/07 10:09:49;;;;;;;7.53;2.58;;;21.00;55.70;;;;;;5118748;27;20068;-65
2022/05/07 10:12:20;;;;;;;2.95;1.63;;;21.00;56.30;;;;;;5101577;27;20519;-64
2022/05/07 10:14:47;;;;;;;4.50;2.05;;;21.20;56.40;;;;;;5105936;27;20098;-63
2022/05/07 10:17:15;;;;;;;4.85;2.25;;;21.40;56.50;;;;;;5119830;27;20027;-64
2022/05/07 10:19:43;;;;;;;3.72;1.77;;;21.70;56.00;;;;;;5114083;27;20072;-63
2022/05/07 10:22:16;;;;;;;2.38;2.13;;;21.90;55.70;;;;;;5122312;27;20047;-64
2022/05/07 10:24:42;;;;;;;7.18;2.38;;;22.00;54.90;;;;;;5123301;27;20043;-60
2022/05/07 10:27:22;;;;;;;2.17;1.80;;;22.10;54.30;;;;;;5108219;27;20267;-61
2022/05/07 10:29:48;;;;;;;4.15;2.65;;;22.20;54.90;;;;;;5110379;27;20032;-60
2022/05/07 10:32:18;;;;;;;3.47;2.08;;;22.30;53.40;;;;;;5111437;28;20481;-60
2022/05/07 10:34:52;;;;;;;2.97;1.55;;;22.40;53.20;;;;;;5085018;27;20067;-61
2022/05/07 10:37:18;;;;;;;5.35;2.55;;;22.50;53.40;;;;;;5100639;27;20019;-60
2022/05/07 10:39:52;;;;;;;2.22;1.88;;;22.50;51.70;;;;;;5101102;27;20031;-60
2022/05/07 10:42:22;;;;;;;5.68;2.03;;;22.50;52.20;;;;;;5097694;28;20032;-60
2022/05/07 10:44:49;;;;;;;1.70;1.45;;;22.40;51.90;;;;;;5100097;28;20490;-60
2022/05/07 10:47:19;;;;;;;3.08;1.95;;;22.30;52.10;;;;;;5104215;27;20027;-60
2022/05/07 10:49:56;;;;;;;4.15;1.95;;;22.20;52.50;;;;;;5108937;27;20401;-60
2022/05/07 10:52:33;;;;;;;1.98;1.58;;;22.30;52.80;;;;;;5109375;27;20071;-60
2022/05/07 10:55:09;;;;;;;1.85;1.48;;;22.50;52.70;;;;;;5113951;27;20051;-60
2022/05/07 10:57:43;;;;;;;5.15;2.35;;;22.90;52.40;;;;;;5105716;27;20024;-60
2022/05/07 11:00:11;;;;;;;4.00;2.40;;;23.10;51.20;;;;;;5107360;28;20040;-60
2022/05/07 11:02:37;;;;;;;2.13;1.90;;;23.10;51.10;;;;;;5111515;27;20424;-60
2022/05/07 11:05:02;;;;;;;2.65;2.00;;;23.00;51.40;;;;;;5102334;28;20035;-60
2022/05/07 11:07:28;;;;;;;2.28;1.85;;;22.90;51.80;;;;;;5101012;28;20394;-64
2022/05/07 11:09:54;;;;;;;1.70;1.42;;;22.80;52.30;;;;;;5102128;27;20122;-64
2022/05/07 11:12:22;;;;;;;1.65;1.50;;;22.60;52.30;;;;;;5119984;27;20023;-60
2022/05/07 11:14:48;;;;;;;2.42;2.03;;;22.60;52.70;;;;;;5094159;28;20093;-60
2022/05/07 11:17:17;;;;;;;2.38;1.98;;;22.60;52.40;;;;;;5088772;28;20032;-60
2022/05/07 11:19:43;;;;;;;4.05;2.30;;;22.60;52.30;;;;;;5106204;27;20107;-60
2022/05/07 11:22:10;;;;;;;2.58;2.15;;;22.50;51.70;;;;;;5088721;28;20118;-61
2022/05/07 11:24:36;;;;;;;3.90;1.98;;;22.40;52.30;;;;;;5110465;28;20110;-60
2022/05/07 11:27:07;;;;;;;2.08;1.67;;;22.40;52.60;;;;;;5109337;27;20550;-60
2022/05/07 11:29:34;;;;;;;5.10;2.70;;;22.30;52.90;;;;;;5083181;28;20065;-60
2022/05/07 11:32:07;;;;;;;3.38;2.30;;;22.20;53.20;;;;;;5110237;28;20055;-60
2022/05/07 11:34:42;;;;;;;4.05;2.13;;;22.20;53.60;;;;;;5101324;27;20035;-60
2022/05/07 11:37:13;;;;;;;8.43;1.88;;;22.10;53.60;;;;;;5110341;27;20031;-60
2022/05/07 11:40:06;;;;;;;3.03;2.45;;;22.00;53.60;;;;;;5088883;28;20475;-60
2022/05/07 11:42:46;;;;;;;4.82;2.28;;;22.00;53.30;;;;;;5102567;27;20142;-61
2022/05/07 11:45:26;;;;;;;2.33;1.90;;;22.00;53.60;;;;;;5103700;28;20031;-61
2022/05/07 11:48:13;;;;;;;4.10;2.92;;;22.20;53.50;;;;;;5107547;28;20040;-60
2022/05/07 11:50:55;;;;;;;3.25;2.47;;;22.50;52.40;;;;;;5106723;28;20069;-64
2022/05/07 11:53:27;;;;;;;2.50;2.03;;;22.40;52.80;;;;;;5110599;28;20044;-61
2022/05/07 11:56:03;;;;;;;7.68;2.92;;;22.20;52.80;;;;;;5107062;28;20478;-61
2022/05/07 11:58:37;;;;;;;3.72;2.45;;;22.10;52.90;;;;;;5107972;28;20108;-61
2022/05/07 12:01:03;;;;;;;2.80;2.10;;;22.00;52.90;;;;;;5109644;28;20023;-61
2022/05/07 12:03:29;;;;;;;3.92;2.10;;;21.80;53.40;;;;;;5107728;28;20505;-64
2022/05/07 12:05:57;;;;;;;2.50;1.95;;;21.70;53.70;;;;;;5099392;28;20034;-64
2022/05/07 12:08:24;;;;;;;2.85;1.80;;;21.60;54.10;;;;;;5107414;28;20028;-64
2022/05/07 12:10:58;;;;;;;2.63;2.08;;;21.50;54.30;;;;;;5082793;28;20048;-64
2022/05/07 12:13:25;;;;;;;7.03;1.50;;;21.30;54.70;;;;;;5108042;27;20102;-64
2022/05/07 12:18:36;;;;;;;2.88;1.92;;;21.20;58.30;;;;;;5101964;27;20042;-64
2022/05/07 12:21:03;;;;;;;1.73;1.58;;;21.00;60.50;;;;;;5106728;27;20063;-61
2022/05/07 12:31:41;;;;;;;3.35;2.55;;;20.40;65.10;;;;;;5113861;27;20478;-61
2022/05/07 12:34:06;;;;;;;2.38;1.90;;;20.30;66.70;;;;;;5106262;28;20020;-61
2022/05/07 12:36:32;;;;;;;1.83;1.60;;;20.30;67.40;;;;;;5099330;28;20067;-61
2022/05/07 12:38:59;;;;;;;2.90;1.80;;;20.30;67.30;;;;;;5089304;28;20039;-61
2022/05/07 12:41:30;;;;;;;3.75;2.05;;;20.40;67.90;;;;;;5098458;28;20073;-61
2022/05/07 12:43:58;;;;;;;3.35;2.03;;;20.40;68.50;;;;;;5100096;28;20081;-61
2022/05/07 12:46:25;;;;;;;3.15;1.55;;;20.40;69.00;;;;;;5110397;27;20072;-61
2022/05/07 12:48:51;;;;;;;3.30;2.05;;;20.40;69.20;;;;;;5107481;28;20146;-61
2022/05/07 12:51:18;;;;;;;2.92;1.95;;;20.40;69.30;;;;;;5106711;28;20483;-61
2022/05/07 12:53:43;;;;;;;1.83;1.45;;;20.40;69.30;;;;;;5107513;28;20046;-61
2022/05/07 12:56:09;;;;;;;3.63;2.15;;;20.50;70.00;;;;;;5095592;28;20020;-61
2022/05/07 12:58:35;;;;;;;3.47;2.20;;;20.60;70.20;;;;;;5087813;27;20111;-61
2022/05/07 13:01:01;;;;;;;3.35;2.30;;;20.70;71.30;;;;;;5105995;28;20173;-61
2022/05/07 13:03:27;;;;;;;3.47;3.00;;;21.00;71.20;;;;;;5104422;28;20474;-61
2022/05/07 13:05:53;;;;;;;7.05;3.05;;;21.40;71.70;;;;;;5087496;28;20031;-61
2022/05/07 13:08:19;;;;;;;6.03;2.90;;;21.80;72.70;;;;;;5100424;28;20058;-61
2022/05/07 13:10:45;;;;;;;4.93;3.28;;;22.20;71.90;;;;;;5105080;28;20036;-60
2022/05/07 13:13:11;;;;;;;4.15;2.85;;;22.40;71.00;;;;;;5105481;28;20028;-61
2022/05/07 13:15:37;;;;;;;4.47;2.22;;;22.50;70.10;;;;;;5099275;28;20024;-61
2022/05/07 13:18:04;;;;;;;3.72;2.55;;;22.40;69.40;;;;;;5101464;28;20136;-61
2022/05/07 13:20:30;;;;;;;3.67;2.33;;;22.30;68.90;;;;;;5104442;28;20119;-61
2022/05/07 13:22:55;;;;;;;2.47;2.03;;;22.30;69.30;;;;;;5105004;28;20095;-61
2022/05/07 13:25:22;;;;;;;3.03;1.45;;;22.50;68.70;;;;;;5103228;28;20039;-61
2022/05/07 13:27:49;;;;;;;2.13;1.58;;;22.80;67.70;;;;;;5106955;28;20035;-62